createdAt,value
2018-12-23T00:00:05.731Z,99313.49
2018-12-23T00:02:35.684Z,99309.41
2018-12-23T00:05:11.413Z,99312.43
2018-12-23T00:07:35.176Z,99323.45
2018-12-23T00:10:07.323Z,99324.62
2018-12-23T00:12:35.757Z,99327.32
2018-12-23T00:15:06.824Z,99325.84
2018-12-23T00:17:34.962Z,99343.17
2018-12-23T00:20:06.035Z,99307.95
2018-12-23T00:22:34.204Z,99344.24
2018-12-23T00:25:05.587Z,99343.31
2018-12-23T00:27:34.808Z,99338.84
2018-12-23T00:30:05.749Z,99349.84
2018-12-23T00:32:34.816Z,99347.32
2018-12-23T00:35:06.130Z,99333.40
2018-12-23T00:37:34.193Z,99356.17
2018-12-23T00:40:03.639Z,99359.80
2018-12-23T00:42:33.830Z,99361.78
2018-12-23T00:45:03.263Z,99369.70
2018-12-23T00:47:31.611Z,99358.86
2018-12-23T00:50:01.439Z,99352.55
2018-12-23T00:52:30.421Z,99362.24
2018-12-23T00:54:58.670Z,99343.09
2018-12-23T00:57:27.704Z,99365.80
2018-12-23T00:59:55.790Z,99362.77
2018-12-23T01:02:24.209Z,99372.01
2018-12-23T01:04:52.154Z,99379.72
2018-12-23T01:07:20.211Z,99371.62
2018-12-23T01:09:50.113Z,99381.17
2018-12-23T01:12:18.803Z,99377.47
2018-12-23T01:14:46.788Z,99383.01
2018-12-23T01:17:15.361Z,99378.28
2018-12-23T01:19:43.602Z,99382.30
2018-12-23T01:22:11.923Z,99387.51
2018-12-23T01:24:40.141Z,99387.51
2018-12-23T01:27:08.869Z,99386.83
2018-12-23T01:29:37.358Z,99396.45
2018-12-23T01:32:06.281Z,99395.43
2018-12-23T01:34:37.162Z,99399.83
2018-12-23T01:37:03.120Z,99404.44
2018-12-23T01:39:31.406Z,99375.33
2018-12-23T01:42:00.336Z,99407.81
2018-12-23T01:44:28.731Z,99406.67
2018-12-23T01:46:56.981Z,99401.34
2018-12-23T01:49:25.849Z,99400.56
2018-12-23T01:51:54.712Z,99399.42
2018-12-23T01:54:22.793Z,99395.00
2018-12-23T01:56:51.257Z,99411.56
2018-12-23T01:59:19.490Z,99402.31
2018-12-23T02:01:47.789Z,99404.09
2018-12-23T02:04:15.952Z,99406.86
2018-12-23T02:06:43.929Z,99366.30
2018-12-23T02:09:12.263Z,99403.38
2018-12-23T02:11:40.931Z,99415.39
2018-12-23T02:14:09.082Z,99410.23
2018-12-23T02:16:39.951Z,99414.39
2018-12-23T02:19:09.633Z,99417.55
2018-12-23T02:21:37.969Z,99421.92
2018-12-23T02:24:07.095Z,99427.75
2018-12-23T02:26:35.284Z,99415.78
2018-12-23T02:29:03.781Z,99425.08
2018-12-23T02:31:32.991Z,99415.00
2018-12-23T02:34:01.114Z,99415.63
2018-12-23T02:36:29.104Z,99406.45
2018-12-23T02:38:57.764Z,99414.70
2018-12-23T02:41:31.698Z,99421.63
2018-12-23T02:43:53.386Z,99412.14
2018-12-23T02:46:22.080Z,99412.92
2018-12-23T02:48:50.351Z,99402.30
2018-12-23T02:51:18.626Z,99415.97
2018-12-23T02:53:47.228Z,99414.65
2018-12-23T02:56:19.752Z,99415.28
2018-12-23T02:58:47.676Z,99436.05
2018-12-23T03:01:16.023Z,99417.66
2018-12-23T03:03:43.862Z,99416.88
2018-12-23T03:06:11.845Z,99421.48
2018-12-23T03:08:44.653Z,99393.36
2018-12-23T03:11:13.068Z,99376.31
2018-12-23T03:13:42.235Z,99421.03
2018-12-23T03:16:10.723Z,99418.11
2018-12-23T03:18:39.580Z,99361.97
2018-12-23T03:21:07.709Z,99360.13
2018-12-23T03:23:36.615Z,99422.95
2018-12-23T03:26:04.801Z,99427.74
2018-12-23T03:28:32.548Z,99424.58
2018-12-23T03:31:01.328Z,99421.57
2018-12-23T03:33:29.259Z,99421.42
2018-12-23T03:35:57.759Z,99426.05
2018-12-23T03:38:26.655Z,99426.45
2018-12-23T03:40:55.928Z,99430.00
2018-12-23T03:43:26.256Z,99434.16
2018-12-23T03:45:54.962Z,99427.98
2018-12-23T03:48:22.884Z,99424.45
2018-12-23T03:50:51.065Z,99429.34
2018-12-23T03:53:19.549Z,99425.97
2018-12-23T03:55:48.036Z,99420.38
2018-12-23T03:58:16.063Z,99397.28
2018-12-23T04:00:44.957Z,99420.83
2018-12-23T04:03:12.991Z,99398.16
2018-12-23T04:05:41.015Z,99428.06
2018-12-23T04:08:09.608Z,99426.71
2018-12-23T04:10:37.553Z,99351.86
2018-12-23T04:13:05.560Z,99426.23
2018-12-23T04:15:33.919Z,99465.13
2018-12-23T04:18:03.040Z,99431.27
2018-12-23T04:20:31.825Z,99433.38
2018-12-23T04:23:01.644Z,99424.70
2018-12-23T04:25:29.665Z,99427.20
2018-12-23T04:27:57.602Z,99427.95
2018-12-23T04:30:25.525Z,99420.31
2018-12-23T04:32:53.455Z,99380.50
2018-12-23T04:35:21.353Z,99416.84
2018-12-23T04:37:50.028Z,99416.96
2018-12-23T04:40:18.176Z,99417.70
2018-12-23T04:42:48.098Z,99391.55
2018-12-23T04:45:16.167Z,99407.22
2018-12-23T04:47:44.359Z,99431.98
2018-12-23T04:50:12.168Z,99427.14
2018-12-23T04:52:40.440Z,99267.85
2018-12-23T04:55:08.396Z,99428.55
2018-12-23T04:57:38.083Z,99418.14
2018-12-23T05:00:06.331Z,99417.08
2018-12-23T05:02:34.332Z,99420.68
2018-12-23T05:05:03.129Z,99428.05
2018-12-23T05:07:31.513Z,99424.94
2018-12-23T05:10:00.024Z,99421.87
2018-12-23T05:12:28.232Z,99425.84
2018-12-23T05:14:56.686Z,99424.17
2018-12-23T05:17:24.804Z,99433.85
2018-12-23T05:19:52.769Z,99356.33
2018-12-23T05:22:21.220Z,99425.42
2018-12-23T05:24:49.902Z,99428.00
2018-12-23T05:27:18.151Z,99433.82
2018-12-23T05:29:46.644Z,99428.84
2018-12-23T05:32:14.855Z,99440.58
2018-12-23T05:34:43.137Z,99446.70
2018-12-23T05:37:12.108Z,99451.69
2018-12-23T05:39:40.154Z,99450.31
2018-12-23T05:42:08.370Z,99452.84
2018-12-23T05:44:37.012Z,99452.78
2018-12-23T05:47:05.028Z,99462.06
2018-12-23T05:49:33.147Z,99454.71
2018-12-23T05:52:03.633Z,99455.71
2018-12-23T05:54:32.044Z,99467.23
2018-12-23T05:57:00.563Z,99420.44
2018-12-23T05:59:29.254Z,99454.55
2018-12-23T06:01:57.449Z,99461.56
2018-12-23T06:04:25.703Z,99464.17
2018-12-23T06:07:00.877Z,99464.51
2018-12-23T06:09:23.199Z,99465.89
2018-12-23T06:11:52.186Z,99468.56
2018-12-23T06:14:21.678Z,99241.27
2018-12-23T06:16:52.262Z,99374.73
2018-12-23T06:19:20.330Z,99463.53
2018-12-23T06:21:48.715Z,99253.62
2018-12-23T06:24:16.867Z,99470.99
2018-12-23T06:26:47.418Z,99462.13
2018-12-23T06:29:16.075Z,99468.64
2018-12-23T06:31:44.199Z,99469.97
2018-12-23T06:34:12.308Z,99464.78
2018-12-23T06:36:40.548Z,99455.65
2018-12-23T06:39:08.645Z,99457.55
2018-12-23T06:41:36.777Z,99465.50
2018-12-23T06:44:06.678Z,99470.38
2018-12-23T06:46:34.517Z,99468.70
2018-12-23T06:49:03.214Z,99464.06
2018-12-23T06:51:31.258Z,99463.41
2018-12-23T06:53:59.766Z,99466.33
2018-12-23T06:56:29.437Z,99471.41
2018-12-23T06:58:58.234Z,99467.11
2018-12-23T07:01:26.453Z,99228.59
2018-12-23T07:03:54.878Z,99471.02
2018-12-23T07:06:22.885Z,99469.43
2018-12-23T07:08:50.799Z,99446.66
2018-12-23T07:11:19.522Z,99468.44
2018-12-23T07:13:48.243Z,99475.56
2018-12-23T07:16:16.469Z,99476.73
2018-12-23T07:18:46.764Z,99480.25
2018-12-23T07:21:16.063Z,99478.22
2018-12-23T07:23:44.811Z,99474.18
2018-12-23T07:26:12.845Z,99475.35
2018-12-23T07:28:41.218Z,99482.53
2018-12-23T07:31:09.609Z,99486.47
2018-12-23T07:33:38.205Z,99488.61
2018-12-23T07:36:07.688Z,99402.70
2018-12-23T07:38:36.153Z,99430.69
2018-12-23T07:41:05.547Z,99475.61
2018-12-23T07:43:33.893Z,99476.30
2018-12-23T07:46:04.238Z,99478.92
2018-12-23T07:48:36.663Z,99473.19
2018-12-23T07:51:09.402Z,99477.48
2018-12-23T07:53:39.742Z,99474.67
2018-12-23T07:56:08.441Z,99472.53
2018-12-23T07:58:36.452Z,99472.48
2018-12-23T08:01:05.308Z,99473.17
2018-12-23T08:03:33.339Z,99472.09
2018-12-23T08:06:02.162Z,99476.33
2018-12-23T08:08:30.844Z,99475.88
2018-12-23T08:11:00.267Z,99303.70
2018-12-23T08:13:30.803Z,99476.13
2018-12-23T08:16:07.362Z,99467.77
2018-12-23T08:18:38.945Z,99472.67
2018-12-23T08:21:07.160Z,99465.42
2018-12-23T08:23:36.342Z,99469.85
2018-12-23T08:26:04.388Z,99463.66
2018-12-23T08:28:33.131Z,99470.91
2018-12-23T08:31:03.104Z,99472.99
2018-12-23T08:33:32.271Z,99467.80
2018-12-23T08:36:00.270Z,99475.44
2018-12-23T08:38:28.766Z,99473.61
2018-12-23T08:40:57.099Z,99372.00
2018-12-23T08:43:25.145Z,99363.14
2018-12-23T08:45:53.934Z,99340.48
2018-12-23T08:48:22.086Z,99467.61
2018-12-23T08:50:50.581Z,99479.80
2018-12-23T08:53:18.802Z,99454.34
2018-12-23T08:55:46.783Z,99471.53
2018-12-23T08:58:15.195Z,99476.17
2018-12-23T09:00:43.029Z,99474.34
2018-12-23T09:03:18.621Z,99472.45
2018-12-23T09:06:09.534Z,99473.17
2018-12-23T09:08:37.596Z,99479.19
2018-12-23T09:11:06.425Z,99444.65
2018-12-23T09:13:38.271Z,99472.81
2018-12-23T09:16:07.017Z,99476.77
2018-12-23T09:18:35.047Z,99459.64
2018-12-23T09:21:05.210Z,99467.08
2018-12-23T09:23:35.461Z,99470.66
2018-12-23T09:26:03.594Z,99463.52
2018-12-23T09:28:32.392Z,99461.95
2018-12-23T09:31:05.605Z,99454.25
2018-12-23T09:33:33.730Z,99448.52
2018-12-23T09:36:02.210Z,99451.52
2018-12-23T09:38:32.049Z,99441.88
2018-12-23T09:41:01.283Z,99341.41
2018-12-23T09:43:30.136Z,99459.61
2018-12-23T09:45:59.910Z,99450.78
2018-12-23T09:48:27.842Z,99458.42
2018-12-23T09:50:58.565Z,99451.83
2018-12-23T09:53:31.871Z,99435.27
2018-12-23T09:56:00.253Z,99439.34
2018-12-23T09:58:29.701Z,99442.63
2018-12-23T10:01:00.543Z,99436.97
2018-12-23T10:03:30.381Z,99437.42
2018-12-23T10:05:59.304Z,99423.72
2018-12-23T10:08:28.288Z,99416.37
2018-12-23T10:10:59.146Z,99429.52
2018-12-23T10:13:28.407Z,99425.62
2018-12-23T10:15:59.542Z,99397.40
2018-12-23T10:18:28.659Z,99411.84
2018-12-23T10:21:04.410Z,99405.32
2018-12-23T10:23:34.195Z,99413.33
2018-12-23T10:26:02.968Z,99386.97
2018-12-23T10:28:31.843Z,99304.31
2018-12-23T10:31:02.932Z,99400.02
2018-12-23T10:33:34.270Z,99395.88
2018-12-23T10:36:07.066Z,99299.51
2018-12-23T10:38:35.143Z,99392.27
2018-12-23T10:41:05.536Z,99345.08
2018-12-23T10:43:42.022Z,99386.16
2018-12-23T10:46:13.870Z,99388.27
2018-12-23T10:48:44.729Z,99383.51
2018-12-23T10:51:14.695Z,99374.95
2018-12-23T10:53:45.795Z,99355.99
2018-12-23T10:56:19.882Z,99367.73
2018-12-23T10:58:49.600Z,99361.59
2018-12-23T11:01:22.891Z,99368.94
2018-12-23T11:03:51.631Z,99363.92
2018-12-23T11:06:28.941Z,99361.15
2018-12-23T11:09:02.649Z,99352.07
2018-12-23T11:11:35.762Z,99342.99
2018-12-23T11:14:11.342Z,99337.97
2018-12-23T11:16:39.941Z,99332.41
2018-12-23T11:19:09.294Z,99326.64
2018-12-23T11:21:37.408Z,99321.86
2018-12-23T11:24:05.801Z,99244.63
2018-12-23T11:26:34.761Z,99314.39
2018-12-23T11:29:04.985Z,99314.28
2018-12-23T11:31:35.703Z,99305.44
2018-12-23T11:34:05.373Z,99301.48
2018-12-23T11:36:39.452Z,99278.22
2018-12-23T11:39:10.511Z,99296.39
2018-12-23T11:41:39.273Z,99292.54
2018-12-23T11:44:14.727Z,99290.44
2018-12-23T11:46:43.740Z,99276.41
2018-12-23T11:49:13.227Z,99284.80
2018-12-23T11:51:45.453Z,99285.58
2018-12-23T11:54:18.674Z,99279.48
2018-12-23T11:56:52.529Z,99284.95
2018-12-23T11:59:26.568Z,99274.09
2018-12-23T12:01:56.019Z,99288.75
2018-12-23T12:04:29.370Z,99041.73
2018-12-23T12:07:04.259Z,99265.83
2018-12-23T12:09:42.851Z,99269.25
2018-12-23T12:12:16.317Z,99265.47
2018-12-23T12:14:49.988Z,99259.14
2018-12-23T12:17:22.064Z,99251.20
2018-12-23T12:19:51.105Z,99243.86
2018-12-23T12:22:25.005Z,99249.73
2018-12-23T12:24:55.588Z,99249.73
2018-12-23T12:27:26.091Z,99243.92
2018-12-23T12:29:58.583Z,99246.11
2018-12-23T12:32:35.103Z,99235.69
2018-12-23T12:35:07.458Z,99238.16
2018-12-23T12:37:39.268Z,99229.30
2018-12-23T12:40:12.567Z,99219.52
2018-12-23T12:42:42.242Z,99219.35
2018-12-23T12:45:11.665Z,99224.61
2018-12-23T12:47:48.396Z,99218.89
2018-12-23T12:50:25.336Z,99221.59
2018-12-23T12:52:55.480Z,99199.05
2018-12-23T12:55:23.832Z,99203.58
2018-12-23T12:57:52.052Z,99192.91
2018-12-23T13:00:23.751Z,99189.31
2018-12-23T13:02:53.706Z,99190.61
2018-12-23T13:05:27.828Z,98937.11
2018-12-23T13:07:58.768Z,99174.87
2018-12-23T13:10:32.525Z,99177.26
2018-12-23T13:13:06.993Z,99171.28
2018-12-23T13:15:35.739Z,99171.42
2018-12-23T13:18:08.066Z,99144.96
2018-12-23T13:20:38.747Z,99170.40
2018-12-23T13:23:11.851Z,99173.48
2018-12-23T13:25:42.637Z,99158.95
2018-12-23T13:28:13.051Z,99123.31
2018-12-23T13:30:44.949Z,99167.67
2018-12-23T13:33:14.083Z,99092.27
2018-12-23T13:35:46.581Z,99153.26
2018-12-23T13:38:14.920Z,99141.62
2018-12-23T13:41:18.552Z,98877.36
2018-12-23T13:45:03.336Z,98885.44
2018-12-23T13:47:42.630Z,99130.98
2018-12-23T13:50:53.239Z,99138.06
2018-12-23T13:53:37.082Z,99128.20
2018-12-23T13:56:22.971Z,99113.91
2018-12-23T13:59:03.795Z,98964.63
2018-12-23T14:01:44.239Z,99136.01
2018-12-23T14:06:23.634Z,99126.45
2018-12-23T14:10:06.706Z,99108.16
2018-12-23T14:12:35.120Z,99097.38
2018-12-23T14:15:04.856Z,99107.66
2018-12-23T14:17:32.740Z,99106.74
2018-12-23T14:20:05.338Z,99089.22
2018-12-23T14:22:33.697Z,99107.32
2018-12-23T14:25:03.454Z,99104.23
2018-12-23T14:27:31.568Z,99098.77
2018-12-23T14:30:01.754Z,99106.18
2018-12-23T14:32:29.720Z,99101.18
2018-12-23T14:34:57.605Z,99103.95
2018-12-23T14:37:25.420Z,99095.77
2018-12-23T14:39:53.997Z,99098.55
2018-12-23T14:42:28.242Z,98937.56
2018-12-23T14:44:58.312Z,99085.44
2018-12-23T14:47:27.454Z,99080.97
2018-12-23T14:49:57.189Z,99074.36
2018-12-23T14:52:28.498Z,99048.91
2018-12-23T14:54:59.880Z,99058.95
2018-12-23T14:57:30.867Z,99055.27
2018-12-23T15:00:00.172Z,99049.66
2018-12-23T15:02:28.651Z,99057.52
2018-12-23T15:05:00.774Z,99038.77
2018-12-23T15:07:30.055Z,99034.05
2018-12-23T15:10:00.635Z,99047.30
2018-12-23T15:12:29.844Z,99028.53
2018-12-23T15:14:58.622Z,99040.44
2018-12-23T15:18:15.153Z,98960.53
2018-12-23T15:21:02.082Z,99031.59
2018-12-23T15:23:31.091Z,99020.48
2018-12-23T15:26:01.203Z,99015.13
2018-12-23T15:28:39.131Z,99019.38
2018-12-23T15:31:09.724Z,99013.91
2018-12-23T15:33:40.825Z,99013.99
2018-12-23T15:36:09.491Z,99000.73
2018-12-23T15:38:38.466Z,98995.79
2018-12-23T15:41:07.457Z,98940.93
2018-12-23T15:43:37.061Z,98993.80
2018-12-23T15:46:06.155Z,98996.79
2018-12-23T15:48:34.509Z,98991.88
2018-12-23T15:51:06.944Z,98992.41
2018-12-23T15:53:35.959Z,98984.94
2018-12-23T15:56:06.532Z,98983.17
2018-12-23T15:58:35.734Z,98977.56
2018-12-23T16:01:06.362Z,98968.02
2018-12-23T16:03:34.799Z,98961.83
2018-12-23T16:06:03.276Z,98955.63
2018-12-23T16:08:36.865Z,98943.05
2018-12-23T16:11:04.973Z,98948.47
2018-12-23T16:13:34.609Z,98876.77
2018-12-23T16:16:04.363Z,98948.80
2018-12-23T16:18:35.525Z,98889.16
2018-12-23T16:21:03.681Z,98945.16
2018-12-23T16:23:32.141Z,98946.80
2018-12-23T16:26:21.329Z,98940.39
2018-12-23T16:28:53.242Z,98935.63
2018-12-23T16:31:23.091Z,98929.55
2018-12-23T16:34:02.213Z,98933.16
2018-12-23T16:36:31.262Z,98909.11
2018-12-23T16:39:07.687Z,98925.75
2018-12-23T16:41:35.851Z,98929.16
2018-12-23T16:44:03.966Z,98930.27
2018-12-23T16:46:35.445Z,98925.45
2018-12-23T16:49:03.411Z,98872.45
2018-12-23T16:51:35.337Z,98922.23
2018-12-23T16:54:06.610Z,98908.97
2018-12-23T16:56:35.991Z,98906.45
2018-12-23T16:59:08.098Z,98740.61
2018-12-23T17:01:37.339Z,98893.33
2018-12-23T17:04:06.506Z,98754.88
2018-12-23T17:06:39.086Z,98880.86
2018-12-23T17:09:07.966Z,98874.17
2018-12-23T17:11:36.763Z,98866.85
2018-12-23T17:14:05.415Z,98867.46
2018-12-23T17:16:37.202Z,98778.39
2018-12-23T17:19:07.326Z,98865.55
2018-12-23T17:21:40.323Z,98831.54
2018-12-23T17:24:10.243Z,98860.23
2018-12-23T17:26:43.446Z,98860.86
2018-12-23T17:29:11.884Z,98852.16
2018-12-23T17:31:40.707Z,98850.47
2018-12-23T17:34:09.248Z,98847.00
2018-12-23T17:36:42.411Z,98846.09
2018-12-23T17:39:16.504Z,98829.27
2018-12-23T17:41:49.556Z,98824.28
2018-12-23T17:44:18.142Z,98827.27
2018-12-23T17:46:49.426Z,98575.32
2018-12-23T17:49:18.089Z,98832.95
2018-12-23T17:51:59.259Z,98827.27
2018-12-23T17:54:31.422Z,98811.50
2018-12-23T17:57:04.980Z,98815.35
2018-12-23T17:59:36.335Z,98800.88
2018-12-23T18:02:06.396Z,98794.95
2018-12-23T18:04:37.552Z,98789.19
2018-12-23T18:07:09.594Z,98795.20
2018-12-23T18:09:45.689Z,98803.44
2018-12-23T18:12:16.792Z,98673.78
2018-12-23T18:14:45.251Z,98784.67
2018-12-23T18:17:17.593Z,98801.36
2018-12-23T18:19:47.946Z,98796.67
2018-12-23T18:22:22.040Z,98793.38
2018-12-23T18:24:50.267Z,98798.53
2018-12-23T18:27:24.457Z,98788.44
2018-12-23T18:30:02.301Z,98602.86
2018-12-23T18:32:30.624Z,98778.83
2018-12-23T18:35:00.037Z,98780.83
2018-12-23T18:37:31.065Z,98695.84
2018-12-23T18:39:59.879Z,98745.05
2018-12-23T18:42:28.524Z,98641.45
2018-12-23T18:45:00.568Z,98677.14
2018-12-23T18:47:29.326Z,98744.00
2018-12-23T18:50:02.234Z,98741.63
2018-12-23T18:52:33.016Z,98743.00
2018-12-23T18:55:02.084Z,98737.98
2018-12-23T18:57:34.752Z,98734.22
2018-12-23T19:00:06.589Z,98540.99
2018-12-23T19:02:41.025Z,98720.92
2018-12-23T19:05:13.511Z,98726.08
2018-12-23T19:07:51.432Z,98521.25
2018-12-23T19:10:45.170Z,98496.70
2018-12-23T19:14:31.071Z,98701.91
2018-12-23T19:18:19.131Z,98692.91
2018-12-23T19:21:00.966Z,98685.16
2018-12-23T19:25:38.679Z,98674.45
2018-12-23T19:28:17.761Z,98714.25
2018-12-23T19:31:00.524Z,98688.51
2018-12-23T19:33:48.178Z,98736.20
2018-12-23T19:36:27.950Z,98746.06
2018-12-23T19:43:19.277Z,98751.77
2018-12-23T19:46:09.539Z,98752.63
2018-12-23T19:48:53.511Z,98741.47
2018-12-23T19:51:38.179Z,98741.24
2018-12-23T19:54:21.014Z,98721.55
2018-12-23T19:59:06.971Z,98621.87
2018-12-23T20:03:48.609Z,98717.86
2018-12-23T20:06:28.909Z,98727.34
2018-12-23T20:09:21.964Z,98715.88
2018-12-23T20:12:06.097Z,98707.56
2018-12-23T20:14:42.818Z,98700.42
2018-12-23T20:18:03.590Z,98681.45
2018-12-23T20:20:56.385Z,98697.54
2018-12-23T20:23:39.884Z,98683.91
2018-12-23T20:28:19.427Z,98673.61
2018-12-23T20:32:16.340Z,98677.82
2018-12-23T20:35:40.619Z,98684.99
2018-12-23T20:38:23.036Z,98677.98
2018-12-23T20:42:05.692Z,98669.81
2018-12-23T20:44:47.501Z,98681.67
2018-12-23T20:47:37.912Z,98690.72
2018-12-23T20:52:15.259Z,98694.41
2018-12-23T20:56:58.315Z,98686.65
2018-12-23T20:59:37.712Z,98677.56
2018-12-23T21:04:22.302Z,98681.72
2018-12-23T21:08:06.627Z,98659.64
2018-12-23T21:10:49.235Z,98658.44
2018-12-23T21:13:37.499Z,98657.38
2018-12-23T21:17:33.305Z,98668.13
2018-12-23T21:20:14.781Z,98674.89
2018-12-23T21:24:58.496Z,98647.06
2018-12-23T21:29:48.687Z,98657.56
2018-12-23T21:33:41.351Z,98671.26
2018-12-23T21:38:35.710Z,98673.70
2018-12-23T21:42:22.595Z,98661.88
2018-12-23T21:49:10.186Z,98670.14
2018-12-23T21:51:54.893Z,98675.45
2018-12-23T21:54:40.119Z,98667.41
2018-12-23T21:57:19.293Z,98658.64
2018-12-23T21:59:57.294Z,98646.14
2018-12-23T22:02:44.616Z,98537.22
2018-12-23T22:05:24.765Z,98651.30
2018-12-23T22:08:03.959Z,98638.93
2018-12-23T22:10:52.308Z,98637.09
2018-12-23T22:13:27.731Z,98640.55
2018-12-23T22:15:56.754Z,98670.39
2018-12-23T22:18:26.157Z,98682.31
2018-12-23T22:21:02.887Z,98680.39
2018-12-23T22:23:32.075Z,98671.69
2018-12-23T22:26:04.281Z,98657.59
2018-12-23T22:28:33.157Z,98653.73
2018-12-23T22:31:01.114Z,98651.91
2018-12-23T22:33:29.547Z,98655.12
2018-12-23T22:35:59.044Z,98653.97
2018-12-23T22:38:30.017Z,98645.58
2018-12-23T22:41:05.432Z,98701.34
2018-12-23T22:43:33.928Z,98635.99
2018-12-23T22:46:04.209Z,98646.58
2018-12-23T22:48:34.899Z,98652.70
2018-12-23T22:51:04.492Z,98651.54
2018-12-23T22:53:33.007Z,98664.67
2018-12-23T22:56:03.343Z,98661.98
2018-12-23T22:58:31.558Z,98666.41
2018-12-23T23:01:01.111Z,98669.80
2018-12-23T23:03:31.150Z,98666.86
2018-12-23T23:06:02.101Z,98671.00
2018-12-23T23:08:31.569Z,98674.76
2018-12-23T23:10:59.485Z,98644.49
2018-12-23T23:13:28.341Z,98675.26
2018-12-23T23:15:56.327Z,98683.78
2018-12-23T23:18:25.550Z,98669.27
2018-12-23T23:20:57.631Z,98673.63
2018-12-23T23:23:25.434Z,98666.11
2018-12-23T23:25:53.244Z,98671.91
2018-12-23T23:28:21.217Z,98682.56
2018-12-23T23:30:49.211Z,98688.28
2018-12-23T23:33:17.987Z,98684.67
2018-12-23T23:35:52.814Z,98681.30
2018-12-23T23:38:21.404Z,98636.70
2018-12-23T23:40:49.434Z,98678.02
2018-12-23T23:43:17.991Z,98633.42
2018-12-23T23:45:46.021Z,98675.14
2018-12-23T23:48:14.495Z,98671.24
2018-12-23T23:50:42.511Z,98640.14
2018-12-23T23:53:11.114Z,98626.30
2018-12-23T23:55:39.361Z,98694.53
2018-12-23T23:58:07.586Z,98695.58
